Time;durP1;ratioP1;P1;durP2;ratioP2;P2;SDS_P1;SDS_P2;PMS_P1;PMS_P2;Temp;Humidity;BMP_temperature;BMP_pressure;BME280_temperature;BME280_humidity;BME280_pressure;Samples;Min_cycle;Max_cycle;Signal;HPM_P1;HPM_P2
2022/01/19 00:00:49;;;;;;;46.02;12.60;;;;;;;1.49;92.78;102317.23;1718762;81;25789;-67
2022/01/19 00:03:15;;;;;;;49.05;13.18;;;;;;;1.51;92.69;102311.56;1715136;81;98573;-66
2022/01/19 00:05:43;;;;;;;33.65;12.45;;;;;;;1.51;92.77;102312.88;1718462;82;27447;-65
2022/01/19 00:08:12;;;;;;;45.38;13.22;;;;;;;1.52;92.78;102310.27;1710529;82;98713;-65
2022/01/19 00:10:37;;;;;;;32.40;12.23;;;;;;;1.53;92.79;102306.77;1704892;82;25804;-66
2022/01/19 00:13:03;;;;;;;41.05;12.68;;;;;;;1.53;92.82;102296.20;1720205;82;99479;-66
2022/01/19 00:15:29;;;;;;;33.80;12.30;;;;;;;1.52;92.79;102298.80;1722382;82;26005;-65
2022/01/19 00:17:57;;;;;;;42.33;12.73;;;;;;;1.52;92.80;102294.41;1729709;82;27444;-65
2022/01/19 00:20:25;;;;;;;41.98;13.08;;;;;;;1.53;92.84;102293.55;1732351;82;99037;-65
2022/01/19 00:22:52;;;;;;;44.48;12.43;;;;;;;1.53;92.89;102288.27;1725516;82;25742;-66
2022/01/19 00:25:18;;;;;;;41.13;11.48;;;;;;;1.54;92.91;102289.16;1722430;82;98846;-65
2022/01/19 00:27:45;;;;;;;31.25;11.03;;;;;;;1.54;92.95;102282.13;1715140;81;25746;-65
2022/01/19 00:30:11;;;;;;;37.30;12.35;;;;;;;1.53;92.97;102269.77;1723030;82;27623;-65
2022/01/19 00:32:59;;;;;;;28.15;9.78;;;;;;;1.53;92.96;102263.16;1726346;82;98786;-65
2022/01/19 00:35:25;;;;;;;34.03;10.28;;;;;;;1.55;93.01;102269.80;1703324;83;25741;-65
2022/01/19 00:37:51;;;;;;;30.10;11.30;;;;;;;1.56;93.01;102271.15;1697259;83;98855;-65
2022/01/19 00:40:17;;;;;;;31.60;10.15;;;;;;;1.58;93.02;102259.28;1701328;82;25801;-66
2022/01/19 00:42:45;;;;;;;29.63;9.90;;;;;;;1.59;92.79;102259.31;1700485;82;27392;-65
2022/01/19 00:45:13;;;;;;;32.90;10.05;;;;;;;1.61;92.96;102259.34;1701185;82;98426;-65
2022/01/19 00:47:40;;;;;;;31.85;12.00;;;;;;;1.61;92.96;102258.02;1691593;83;25774;-64
2022/01/19 00:50:09;;;;;;;26.82;9.90;;;;;;;1.61;92.95;102254.95;1689866;83;99024;-65
2022/01/19 00:52:38;;;;;;;36.00;11.15;;;;;;;1.63;92.95;102265.12;1695081;83;25774;-64
2022/01/19 00:55:08;;;;;;;32.78;10.53;;;;;;;1.62;92.97;102267.30;1690546;83;98917;-65
2022/01/19 00:57:35;;;;;;;25.77;10.80;;;;;;;1.64;92.97;102266.02;1695555;84;25896;-65
2022/01/19 01:00:07;;;;;;;34.38;10.18;;;;;;;1.65;92.98;102270.87;1693743;83;25878;-64
2022/01/19 01:02:33;;;;;;;35.90;11.33;;;;;;;1.65;92.99;102266.47;1687813;83;98729;-64
2022/01/19 01:04:58;;;;;;;31.62;8.98;;;;;;;1.63;92.93;102260.27;1692121;83;25799;-64
2022/01/19 01:07:24;;;;;;;34.63;10.65;;;;;;;1.64;92.95;102258.08;1687390;83;99116;-64
2022/01/19 01:09:50;;;;;;;41.80;12.93;;;;;;;1.63;92.87;102254.55;1694632;83;26231;-64
2022/01/19 01:12:30;;;;;;;41.58;11.80;;;;;;;1.63;92.84;102258.52;1692235;83;25788;-64
2022/01/19 01:20:20;;;;;;;32.75;10.18;;;;;;;1.63;92.69;102243.09;1691902;83;98681;-64
2022/01/19 01:22:47;;;;;;;35.60;12.60;;;;;;;1.62;92.75;102240.88;1693748;83;25910;-64
2022/01/19 01:25:13;;;;;;;33.42;9.73;;;;;;;1.62;92.75;102233.37;1693632;83;98996;-64
2022/01/19 01:27:39;;;;;;;38.70;10.90;;;;;;;1.62;92.75;102221.48;1686922;83;26480;-64
2022/01/19 01:30:08;;;;;;;37.85;12.07;;;;;;;1.62;92.77;102215.77;1692655;83;25840;-66
2022/01/19 01:32:34;;;;;;;29.02;9.78;;;;;;;1.62;92.74;102201.66;1689994;83;98771;-66
2022/01/19 01:35:01;;;;;;;37.55;11.33;;;;;;;1.62;92.71;102193.73;1691402;83;27097;-66
2022/01/19 01:37:26;;;;;;;30.02;9.48;;;;;;;1.62;92.71;102189.77;1687648;84;98885;-66
2022/01/19 01:39:52;;;;;;;30.92;9.98;;;;;;;1.62;92.74;102185.80;1689497;84;25821;-66
2022/01/19 01:42:21;;;;;;;37.90;10.98;;;;;;;1.61;92.73;102180.95;1688093;83;25841;-66
2022/01/19 01:44:51;;;;;;;35.38;11.57;;;;;;;1.61;92.72;102173.02;1685997;83;98674;-66
2022/01/19 01:47:17;;;;;;;34.25;11.88;;;;;;;1.62;92.75;102154.98;1688636;84;25714;-66
2022/01/19 01:54:56;;;;;;;38.02;10.18;;;;;;;1.65;92.75;102133.00;1686476;83;98852;-65
2022/01/19 01:57:22;;;;;;;35.38;11.12;;;;;;;1.64;92.72;102121.97;1685662;84;27460;-65
2022/01/19 01:59:48;;;;;;;29.63;9.55;;;;;;;1.64;92.72;102119.33;1688353;84;25780;-65
2022/01/19 02:02:15;;;;;;;30.20;11.12;;;;;;;1.65;92.74;102120.22;1686535;84;98569;-65
2022/01/19 02:04:41;;;;;;;34.48;11.08;;;;;;;1.65;92.78;102108.33;1687162;84;25999;-65
2022/01/19 02:09:59;;;;;;;29.25;9.83;;;;;;;1.67;92.82;102112.77;1686029;83;27949;-65
2022/01/19 02:23:27;;;;;;;27.00;9.48;;;;;;;1.75;92.93;102134.94;1685412;84;27556;-65
2022/01/19 02:25:56;;;;;;;38.33;10.15;;;;;;;1.75;92.92;102125.69;1684754;84;98563;-65
2022/01/19 02:31:48;;;;;;;31.77;10.35;;;;;;;1.78;92.98;102101.94;1686303;84;98755;-65
2022/01/19 02:42:09;;;;;;;25.85;10.45;;;;;;;1.81;93.02;102094.06;1675464;83;25845;-65
2022/01/19 02:46:37;;;;;;;29.30;10.35;;;;;;;1.80;93.01;102087.42;1684363;83;99052;-65
2022/01/19 02:49:50;;;;;;;26.35;10.00;;;;;;;1.83;93.01;102083.51;1685303;84;98854;-65
2022/01/19 02:52:18;;;;;;;26.70;9.53;;;;;;;1.84;92.99;102078.68;1681402;84;25776;-64
2022/01/19 02:54:45;;;;;;;24.85;8.85;;;;;;;1.85;92.98;102073.41;1686398;83;26581;-64
2022/01/19 02:57:13;;;;;;;30.05;10.48;;;;;;;1.85;92.99;102071.20;1685788;83;97469;-64
2022/01/19 03:06:30;;;;;;;33.63;10.98;;;;;;;1.88;93.08;102065.53;1685671;84;25837;-64
2022/01/19 03:10:35;;;;;;;36.03;10.98;;;;;;;1.97;93.10;102049.34;1644565;85;25778;-65
2022/01/19 03:13:01;;;;;;;28.42;10.08;;;;;;;1.97;93.10;102042.30;1686223;83;98926;-64
2022/01/19 03:15:28;;;;;;;22.37;9.10;;;;;;;2.02;93.11;102045.01;1685776;83;27544;-65
2022/01/19 03:17:58;;;;;;;29.57;9.95;;;;;;;2.02;93.08;102035.31;1685750;83;26541;-65
2022/01/19 03:20:22;;;;;;;30.12;8.98;;;;;;;2.02;93.07;102033.99;1685763;83;98550;-65
2022/01/19 03:23:10;;;;;;;28.40;8.80;;;;;;;2.05;93.11;102034.47;1686502;83;25785;-65
2022/01/19 03:25:37;;;;;;;29.67;9.45;;;;;;;2.06;93.11;102030.95;1683077;84;98889;-65
2022/01/19 03:27:59;;;;;;;25.50;9.58;;;;;;;2.05;93.13;102022.14;1687092;84;27488;-65
2022/01/19 03:30:25;;;;;;;29.35;9.15;;;;;;;2.06;93.15;102023.91;1686462;84;25805;-65
2022/01/19 03:32:50;;;;;;;26.50;9.18;;;;;;;2.08;93.24;102011.59;1686073;83;98483;-65
2022/01/19 03:35:16;;;;;;;25.45;9.85;;;;;;;2.07;93.32;102013.79;1671533;83;26067;-65
2022/01/19 03:37:42;;;;;;;28.40;11.93;;;;;;;2.05;93.28;102006.70;1653637;83;98623;-65
2022/01/19 03:40:10;;;;;;;24.32;11.30;;;;;;;2.06;93.37;102004.08;1660327;84;29678;-65
2022/01/19 03:42:36;;;;;;;21.50;8.90;;;;;;;2.09;93.45;102009.41;1659010;83;25859;-65
2022/01/19 03:45:06;;;;;;;36.15;12.55;;;;;;;2.11;93.53;102009.43;1652746;83;98534;-65
2022/01/19 03:47:38;;;;;;;24.52;9.43;;;;;;;2.15;93.53;101996.70;1654943;83;25763;-65
2022/01/19 03:49:59;;;;;;;28.57;10.68;;;;;;;2.15;93.57;101990.97;1657655;83;98644;-65
2022/01/19 03:52:25;;;;;;;29.60;13.30;;;;;;;2.22;93.56;101999.44;1657405;83;27444;-65
2022/01/19 03:54:51;;;;;;;34.35;13.83;;;;;;;2.25;93.54;101988.89;1658438;84;25977;-69
2022/01/19 03:57:17;;;;;;;38.75;16.23;;;;;;;2.27;93.53;101982.30;1662626;83;98811;-65
2022/01/19 03:59:43;;;;;;;46.23;15.90;;;;;;;2.30;93.53;101978.80;1641766;84;26151;-65
2022/01/19 04:02:09;;;;;;;39.53;14.53;;;;;;;2.30;93.49;101966.46;1659489;83;98776;-65
2022/01/19 04:04:43;;;;;;;25.48;10.93;;;;;;;2.30;93.52;101969.55;1658839;83;27348;-65
2022/01/19 04:09:33;;;;;;;49.00;17.23;;;;;;;2.37;93.52;101966.98;1658468;84;25806;-65
2022/01/19 04:11:59;;;;;;;48.75;17.30;;;;;;;2.38;93.49;101962.58;1662422;83;25809;-64
2022/01/19 04:14:25;;;;;;;32.20;13.40;;;;;;;2.39;93.43;101966.56;1656636;83;98751;-65
2022/01/19 04:17:04;;;;;;;36.80;13.72;;;;;;;2.40;93.40;101949.82;1659432;83;27408;-65
2022/01/19 04:19:43;;;;;;;31.62;12.65;;;;;;;2.41;93.40;101957.33;1657864;83;99052;-65
2022/01/19 04:22:18;;;;;;;39.45;14.87;;;;;;;2.41;93.39;101943.66;1656941;83;25752;-65
2022/01/19 04:24:47;;;;;;;43.35;14.75;;;;;;;2.39;93.41;101936.14;1658028;83;26053;-65
2022/01/19 04:29:57;;;;;;;35.98;14.00;;;;;;;2.40;93.37;101930.41;1658423;85;28409;-65
2022/01/19 04:32:27;;;;;;;30.68;11.75;;;;;;;2.39;93.31;101927.31;1650954;84;98847;-65
2022/01/19 04:34:49;;;;;;;34.80;13.50;;;;;;;2.41;93.34;101925.14;1661968;84;25928;-64
2022/01/19 05:06:46;;;;;;;34.80;12.05;;;;;;;2.46;93.30;101907.98;1683140;83;25762;-64
2022/01/19 05:09:51;;;;;;;33.65;12.88;;;;;;;2.44;93.29;101900.03;1681676;83;98660;-65
2022/01/19 05:14:37;;;;;;;35.28;11.68;;;;;;;2.46;93.19;101892.11;1682519;83;98661;-65
2022/01/19 05:17:04;;;;;;;25.15;10.68;;;;;;;2.46;93.21;101902.69;1683127;84;26150;-65
2022/01/19 05:19:30;;;;;;;35.17;11.15;;;;;;;2.46;93.23;101905.34;1681252;83;98982;-65
2022/01/19 05:21:55;;;;;;;42.00;12.05;;;;;;;2.45;93.24;101901.80;1683653;83;28090;-65
2022/01/19 05:24:21;;;;;;;26.52;9.78;;;;;;;2.45;93.21;101892.98;1685231;84;26562;-65
2022/01/19 05:26:50;;;;;;;28.35;10.88;;;;;;;2.44;93.25;101890.77;1684208;83;98608;-65
2022/01/19 05:29:15;;;;;;;25.20;10.05;;;;;;;2.42;93.23;101907.06;1686464;84;25844;-65
2022/01/19 05:31:41;;;;;;;19.65;8.80;;;;;;;2.43;93.24;101889.43;1683456;84;98749;-65
2022/01/19 05:34:07;;;;;;;29.70;10.65;;;;;;;2.42;93.21;101888.55;1688774;83;27394;-65
2022/01/19 05:36:32;;;;;;;48.08;13.13;;;;;;;2.44;93.26;101887.23;1686097;83;25940;-66
2022/01/19 05:39:00;;;;;;;34.20;10.93;;;;;;;2.43;93.23;101887.67;1685941;84;98685;-65
2022/01/19 05:41:26;;;;;;;25.62;8.98;;;;;;;2.43;93.21;101882.38;1680250;84;27830;-65
2022/01/19 05:43:52;;;;;;;30.23;10.15;;;;;;;2.44;93.23;101882.83;1688129;84;98656;-65
2022/01/19 05:46:21;;;;;;;33.28;9.73;;;;;;;2.45;93.17;101881.95;1668485;84;27365;-65
2022/01/19 05:48:47;;;;;;;34.70;11.55;;;;;;;2.42;93.17;101868.70;1687856;83;25825;-65
2022/01/19 05:51:13;;;;;;;36.48;9.90;;;;;;;2.44;93.19;101876.65;1687638;84;98586;-65
2022/01/19 05:53:40;;;;;;;32.45;11.85;;;;;;;2.44;93.18;101875.33;1687691;83;43789;-66
2022/01/19 05:56:07;;;;;;;27.85;10.98;;;;;;;2.44;93.14;101877.98;1688742;84;98816;-66
2022/01/19 05:58:33;;;;;;;35.33;12.55;;;;;;;2.44;93.15;101872.69;1687275;84;28229;-66
2022/01/19 06:00:59;;;;;;;26.20;12.37;;;;;;;2.43;93.12;101876.20;1651326;85;98921;-66
2022/01/19 06:03:25;;;;;;;29.52;11.35;;;;;;;2.41;93.11;101872.66;1689963;84;25782;-65
2022/01/19 06:05:51;;;;;;;35.15;11.97;;;;;;;2.42;93.12;101877.07;1689188;83;26737;-65
2022/01/19 06:10:48;;;;;;;34.05;11.20;;;;;;;2.40;93.11;101870.87;1688231;84;27459;-65
2022/01/19 06:13:18;;;;;;;32.05;10.08;;;;;;;2.40;93.15;101870.87;1688395;83;98781;-64
2022/01/19 06:15:46;;;;;;;26.60;10.80;;;;;;;2.39;93.14;101862.49;1686747;84;25745;-65
2022/01/19 06:18:14;;;;;;;33.88;12.37;;;;;;;2.37;93.12;101856.30;1687691;83;26620;-64
2022/01/19 06:20:40;;;;;;;23.87;9.55;;;;;;;2.36;93.11;101850.55;1687017;84;98803;-64
2022/01/19 06:23:07;;;;;;;29.55;10.45;;;;;;;2.36;93.10;101844.83;1686116;84;28192;-67
2022/01/19 06:25:34;;;;;;;18.67;8.90;;;;;;;2.37;93.11;101839.98;1689285;83;99010;-66
2022/01/19 06:28:00;;;;;;;27.75;10.58;;;;;;;2.33;93.09;101843.91;1683836;83;25718;-67
2022/01/19 06:30:26;;;;;;;30.27;11.20;;;;;;;2.31;93.07;101838.61;1683149;83;26708;-67
2022/01/19 06:32:53;;;;;;;27.07;10.18;;;;;;;2.30;93.06;101834.63;1684817;84;98715;-66
2022/01/19 06:35:19;;;;;;;28.20;11.50;;;;;;;2.30;93.11;101835.51;1687970;84;27475;-66
2022/01/19 06:37:45;;;;;;;31.87;11.63;;;;;;;2.30;93.05;101835.51;1681137;84;98709;-66
2022/01/19 06:40:15;;;;;;;20.48;10.28;;;;;;;2.30;93.03;101838.16;1643522;85;25833;-66
2022/01/19 06:42:42;;;;;;;24.23;9.80;;;;;;;2.31;93.04;101832.42;1643578;85;26315;-66
2022/01/19 06:45:09;;;;;;;24.57;9.60;;;;;;;2.31;92.99;101825.81;1634271;85;99029;-66
2022/01/19 06:47:36;;;;;;;19.73;8.30;;;;;;;2.28;92.98;101819.63;1635412;85;27404;-66
2022/01/19 06:50:05;;;;;;;27.90;11.85;;;;;;;2.28;92.97;101830.64;1636096;85;98758;-66
2022/01/19 06:52:31;;;;;;;21.65;9.73;;;;;;;2.26;92.94;101829.30;1684893;83;25926;-66
2022/01/19 06:54:57;;;;;;;24.80;9.28;;;;;;;2.26;92.93;101823.13;1680981;83;99014;-68
2022/01/19 06:57:23;;;;;;;20.68;9.38;;;;;;;2.26;92.88;101825.77;1687042;83;26011;-70
2022/01/19 06:59:51;;;;;;;25.82;10.45;;;;;;;2.27;92.91;101819.61;1687360;83;28337;-71
2022/01/19 07:02:19;;;;;;;29.67;11.08;;;;;;;2.27;92.86;101823.58;1680330;83;99338;-69
2022/01/19 07:04:49;;;;;;;26.40;10.98;;;;;;;2.27;92.86;101809.03;1684118;84;26992;-67
2022/01/19 07:07:12;;;;;;;22.73;10.18;;;;;;;2.27;92.85;101801.98;1686803;83;98803;-67
2022/01/19 07:09:38;;;;;;;31.95;12.65;;;;;;;2.28;92.82;101792.28;1686847;84;25808;-70
2022/01/19 07:12:05;;;;;;;32.73;11.90;;;;;;;2.28;92.84;101787.88;1686802;84;27796;-70
2022/01/19 07:14:31;;;;;;;36.60;13.10;;;;;;;2.30;92.82;101788.33;1682933;84;98837;-69
2022/01/19 07:16:57;;;;;;;30.77;11.83;;;;;;;2.28;92.81;101783.91;1638246;85;25792;-69
2022/01/19 07:19:23;;;;;;;27.65;11.45;;;;;;;2.29;92.78;101792.73;1683582;84;99131;-70
2022/01/19 07:21:50;;;;;;;32.50;13.75;;;;;;;2.28;92.77;101777.30;1642060;86;25737;-68
2022/01/19 07:24:16;;;;;;;39.67;14.58;;;;;;;2.29;92.81;101783.47;1683891;83;27508;-68
2022/01/19 07:26:43;;;;;;;33.80;11.33;;;;;;;2.31;92.79;101788.78;1685623;84;98902;-68
2022/01/19 07:29:09;;;;;;;31.85;12.85;;;;;;;2.30;92.77;101779.95;1689103;84;26067;-68
2022/01/19 07:31:35;;;;;;;51.08;16.97;;;;;;;2.28;92.75;101767.15;1643126;86;98820;-68
2022/01/19 07:34:01;;;;;;;68.62;20.52;;;;;;;2.27;92.77;101759.66;1689141;84;25701;-70
2022/01/19 07:36:29;;;;;;;50.28;16.67;;;;;;;2.32;92.74;101759.69;1692367;84;27357;-69
2022/01/19 07:38:55;;;;;;;54.18;18.92;;;;;;;2.33;92.70;101758.81;1697932;84;98816;-69
2022/01/19 07:41:21;;;;;;;45.73;15.60;;;;;;;2.35;92.70;101761.47;1700922;84;25625;-69
2022/01/19 07:43:47;;;;;;;50.33;16.62;;;;;;;2.34;92.69;101749.13;1699841;84;98595;-69
2022/01/19 07:46:13;;;;;;;56.28;17.75;;;;;;;2.35;92.67;101758.39;1695283;82;25807;-73
2022/01/19 07:48:39;;;;;;;76.70;23.32;;;;;;;2.36;92.68;101760.16;1690597;82;27402;-71
2022/01/19 07:51:04;;;;;;;99.58;24.95;;;;;;;2.37;92.67;101751.79;1694927;84;98671;-71
2022/01/19 07:53:30;;;;;;;92.97;25.32;;;;;;;2.38;92.69;101746.95;1691923;84;26438;-71
2022/01/19 07:55:56;;;;;;;118.00;27.90;;;;;;;2.38;92.64;101732.39;1693047;84;98691;-70
2022/01/19 07:58:22;;;;;;;93.67;25.50;;;;;;;2.40;92.65;101739.91;1693095;84;25728;-71
2022/01/19 08:00:48;;;;;;;69.58;20.35;;;;;;;2.41;92.64;101733.30;1694707;84;28030;-71
2022/01/19 08:03:14;;;;;;;73.40;21.75;;;;;;;2.40;92.59;101728.89;1690141;84;98495;-70
2022/01/19 08:05:40;;;;;;;50.08;17.23;;;;;;;2.39;92.56;101721.83;1690503;82;26463;-70
2022/01/19 08:08:06;;;;;;;41.80;16.57;;;;;;;2.42;92.56;101720.96;1692342;83;99125;-71
2022/01/19 08:10:32;;;;;;;52.17;16.57;;;;;;;2.43;92.47;101717.44;1696909;84;25752;-70
2022/01/19 08:13:03;;;;;;;63.92;20.02;;;;;;;2.42;92.51;101719.64;1693390;83;98884;-71
2022/01/19 08:15:26;;;;;;;75.55;18.80;;;;;;;2.42;92.48;101713.02;1689163;82;25846;-70
2022/01/19 08:17:52;;;;;;;57.90;18.05;;;;;;;2.45;92.55;101719.66;1693965;84;25889;-71
2022/01/19 08:20:18;;;;;;;58.90;20.05;;;;;;;2.41;92.39;101716.11;1689160;84;98830;-71
2022/01/19 08:22:45;;;;;;;54.30;17.55;;;;;;;2.42;92.45;101705.97;1694886;84;25783;-69
2022/01/19 08:25:11;;;;;;;33.15;12.95;;;;;;;2.44;92.46;101700.69;1691457;84;98813;-72
2022/01/19 08:27:37;;;;;;;43.78;14.53;;;;;;;2.48;92.40;101697.19;1695634;84;26096;-71
2022/01/19 08:30:08;;;;;;;50.15;15.98;;;;;;;2.47;92.34;101692.77;1696872;83;25781;-71
2022/01/19 08:32:35;;;;;;;40.23;14.95;;;;;;;2.48;92.39;101687.48;1688087;82;99308;-72
2022/01/19 08:35:04;;;;;;;35.63;14.70;;;;;;;2.50;92.40;101676.47;1695385;84;25824;-71
2022/01/19 08:37:31;;;;;;;37.40;15.38;;;;;;;2.52;92.34;101672.52;1685577;82;99167;-69
2022/01/19 08:39:57;;;;;;;35.13;14.78;;;;;;;2.54;92.32;101668.12;1686419;84;28112;-69
2022/01/19 08:42:25;;;;;;;43.68;16.60;;;;;;;2.56;92.34;101668.57;1683241;83;25806;-68
2022/01/19 08:44:52;;;;;;;40.35;18.10;;;;;;;2.58;92.32;101655.34;1679392;83;98649;-76
2022/01/19 08:47:18;;;;;;;48.35;19.90;;;;;;;2.59;92.19;101655.36;1682212;83;26209;-71
2022/01/19 08:49:44;;;;;;;43.38;19.00;;;;;;;2.58;92.19;101656.23;1686344;83;98784;-67
2022/01/19 08:52:10;;;;;;;48.98;19.85;;;;;;;2.63;92.24;101652.69;1683732;83;26034;-72
2022/01/19 08:54:35;;;;;;;39.45;18.57;;;;;;;2.63;92.16;101654.91;1682932;83;25857;-70
2022/01/19 08:57:04;;;;;;;46.08;20.08;;;;;;;2.61;92.12;101642.09;1687480;83;98812;-70
2022/01/19 08:59:29;;;;;;;42.58;18.77;;;;;;;2.65;92.21;101646.97;1653616;86;25713;-70
2022/01/19 09:01:55;;;;;;;59.90;23.27;;;;;;;2.69;92.25;101635.08;1681759;84;98794;-69
2022/01/19 09:04:21;;;;;;;86.90;27.35;;;;;;;2.73;92.17;101634.22;1689244;83;25790;-69
2022/01/19 09:06:47;;;;;;;59.00;22.95;;;;;;;2.72;92.10;101629.80;1686026;84;25888;-67
2022/01/19 09:09:13;;;;;;;50.40;20.40;;;;;;;2.72;92.06;101623.18;1688412;84;99041;-67
2022/01/19 09:11:39;;;;;;;40.85;17.67;;;;;;;2.70;91.96;101623.61;1683271;84;26599;-67
2022/01/19 09:14:06;;;;;;;42.03;17.45;;;;;;;2.72;91.99;101620.97;1682615;84;98780;-69
2022/01/19 09:16:35;;;;;;;37.53;15.80;;;;;;;2.76;92.09;101622.31;1684410;83;26291;-70
2022/01/19 09:19:03;;;;;;;60.23;23.35;;;;;;;2.81;92.01;101619.25;1682564;83;98937;-69
2022/01/19 09:21:29;;;;;;;48.02;17.95;;;;;;;2.86;92.01;101621.47;1686661;83;26607;-69
2022/01/19 09:23:55;;;;;;;44.67;16.37;;;;;;;2.86;91.97;101620.15;1684313;83;25757;-72
2022/01/19 09:26:21;;;;;;;46.90;17.12;;;;;;;2.87;91.93;101619.71;1683952;83;98798;-71
2022/01/19 09:28:47;;;;;;;39.75;15.23;;;;;;;2.91;91.95;101618.41;1690547;83;25911;-71
2022/01/19 09:31:16;;;;;;;40.63;16.35;;;;;;;2.94;91.85;101610.47;1689059;83;98999;-71
2022/01/19 09:33:43;;;;;;;50.75;16.20;;;;;;;2.94;91.72;101621.50;1687751;84;26159;-71
2022/01/19 09:36:29;;;;;;;63.25;21.12;;;;;;;2.90;91.65;101611.34;1683753;84;26553;-71
2022/01/19 09:38:40;;;;;;;63.25;18.32;;;;;;;2.88;91.58;101605.59;1678267;84;98864;-71
2022/01/19 09:41:10;;;;;;;32.30;13.88;;;;;;;2.91;91.70;101610.45;1683615;83;25806;-70
2022/01/19 09:43:37;;;;;;;34.85;15.20;;;;;;;2.91;91.52;101613.11;1681172;84;99026;-70
2022/01/19 09:46:03;;;;;;;37.30;15.98;;;;;;;2.88;91.43;101600.30;1685014;83;25827;-69
2022/01/19 09:48:29;;;;;;;61.90;19.92;;;;;;;2.90;91.48;101598.54;1687033;84;26505;-70
2022/01/19 09:50:56;;;;;;;38.40;15.90;;;;;;;2.96;91.52;101591.05;1683045;83;98869;-70
2022/01/19 09:53:23;;;;;;;33.95;14.65;;;;;;;3.02;91.31;101588.42;1683741;83;25810;-71
2022/01/19 09:55:50;;;;;;;32.33;13.38;;;;;;;3.03;91.26;101591.08;1683248;83;97968;-70
2022/01/19 09:58:18;;;;;;;38.78;13.65;;;;;;;3.04;91.25;101580.04;1684363;83;26516;-72
2022/01/19 10:00:44;;;;;;;43.50;17.95;;;;;;;3.05;91.22;101577.84;1681670;83;25895;-70
2022/01/19 10:03:21;;;;;;;68.12;22.30;;;;;;;3.07;91.21;101578.72;1685401;83;98633;-69
2022/01/19 10:06:10;;;;;;;78.02;25.95;;;;;;;3.10;91.23;101576.08;1685935;83;25795;-69
2022/01/19 10:08:42;;;;;;;94.35;29.92;;;;;;;3.15;91.30;101568.59;1684496;84;99215;-70
2022/01/19 10:16:58;;;;;;;86.00;27.42;;;;;;;3.20;91.17;101573.89;1686000;84;25829;-70
2022/01/19 10:17:00;;;;;;;61.80;21.77;;;;;;;3.23;91.12;101560.66;1681130;84;31869;-69
2022/01/19 10:19:37;;;;;;;93.13;31.03;;;;;;;3.30;91.19;101557.12;1685500;84;99499;-70
2022/01/19 10:22:07;;;;;;;71.42;25.20;;;;;;;3.37;91.13;101559.34;1684433;84;25884;-70
2022/01/19 10:24:48;;;;;;;56.55;21.95;;;;;;;3.41;91.10;101558.02;1687437;84;25793;-70
2022/01/19 10:27:30;;;;;;;46.53;19.20;;;;;;;3.46;91.05;101550.95;1676587;83;98625;-70
2022/01/19 10:30:08;;;;;;;31.33;14.60;;;;;;;3.48;90.94;101547.86;1682483;83;27393;-70
2022/01/19 10:32:40;;;;;;;33.65;15.50;;;;;;;3.48;90.51;101546.53;1684967;84;98977;-70
2022/01/19 10:35:23;;;;;;;34.90;18.00;;;;;;;3.52;90.82;101537.70;1688174;84;25772;-70
2022/01/19 10:38:14;;;;;;;39.98;16.62;;;;;;;3.53;90.59;101536.81;1685007;84;98674;-70
2022/01/19 10:40:45;;;;;;;52.40;21.30;;;;;;;3.45;90.41;101527.98;1688199;84;25796;-70
2022/01/19 10:43:33;;;;;;;40.52;17.50;;;;;;;3.51;90.66;101528.42;1687257;84;98923;-70
2022/01/19 10:46:04;;;;;;;42.90;18.35;;;;;;;3.56;90.63;101526.21;1687870;83;26091;-70
2022/01/19 10:48:37;;;;;;;36.65;17.77;;;;;;;3.56;90.40;101516.05;1677960;83;25924;-70
2022/01/19 10:51:17;;;;;;;31.37;17.82;;;;;;;3.57;90.43;101509.42;1683171;83;98733;-70
2022/01/19 10:54:04;;;;;;;33.23;16.42;;;;;;;3.62;90.36;101501.91;1682878;83;25874;-70
2022/01/19 10:56:31;;;;;;;31.85;16.25;;;;;;;3.58;90.19;101489.10;1684623;84;98833;-69
2022/01/19 10:59:04;;;;;;;29.57;16.37;;;;;;;3.57;90.21;101484.24;1685014;84;26602;-69
2022/01/19 11:01:47;;;;;;;31.42;16.07;;;;;;;3.62;90.29;101468.33;1688390;84;98924;-70
2022/01/19 11:04:33;;;;;;;44.95;19.12;;;;;;;3.66;90.23;101461.25;1686928;83;25865;-72
2022/01/19 11:07:04;;;;;;;37.00;17.30;;;;;;;3.73;90.30;101461.69;1684336;83;99017;-70
2022/01/19 11:09:43;;;;;;;34.10;18.40;;;;;;;3.77;90.25;101451.51;1685656;84;28237;-70
2022/01/19 11:12:11;;;;;;;39.08;18.10;;;;;;;3.76;89.99;101448.41;1686765;84;25802;-70
2022/01/19 11:14:36;;;;;;;38.20;18.40;;;;;;;3.77;90.09;101451.06;1690467;83;98653;-70
2022/01/19 11:17:03;;;;;;;35.90;18.02;;;;;;;3.79;90.11;101443.11;1686855;84;26004;-70
2022/01/19 11:19:29;;;;;;;35.45;18.87;;;;;;;3.84;90.14;101445.30;1686993;84;99029;-69
2022/01/19 11:22:21;;;;;;;38.02;21.15;;;;;;;3.85;90.07;101440.44;1684131;84;26821;-68
2022/01/19 11:25:05;;;;;;;;;;;;;;;3.88;90.10;101425.39;1690036;84;26592;-71
2022/01/19 11:27:41;;;;;;;65.92;41.88;;;;;;;3.92;90.02;101418.31;1687627;84;83715;-71
2022/01/19 11:30:20;;;;;;;63.90;33.00;;;;;;;3.89;89.93;101412.58;1687659;83;25933;-71
2022/01/19 11:33:26;;;;;;;45.75;24.70;;;;;;;3.96;89.98;101405.48;1684250;84;99164;-73
2022/01/19 11:36:03;;;;;;;42.05;22.82;;;;;;;3.95;89.62;101403.71;1688456;84;27501;-70
2022/01/19 11:38:37;;;;;;;76.10;46.00;;;;;;;3.94;89.37;101406.37;1687771;83;98668;-70
2022/01/19 11:41:11;;;;;;;58.10;31.77;;;;;;;3.83;89.44;101402.43;1691486;83;26672;-69
2022/01/19 11:43:51;;;;;;;61.48;35.68;;;;;;;3.77;89.33;101395.38;1693001;83;99006;-71
2022/01/19 11:46:36;;;;;;;53.75;29.30;;;;;;;3.76;89.42;101391.41;1688880;83;25912;-70
2022/01/19 11:49:05;;;;;;;47.67;24.00;;;;;;;3.75;89.37;101384.34;1691171;83;27411;-70
2022/01/19 11:51:35;;;;;;;45.90;22.02;;;;;;;3.77;89.37;101379.47;1690897;83;98950;-72
2022/01/19 11:54:29;;;;;;;43.92;21.33;;;;;;;3.78;89.16;101371.95;1687795;83;25708;-70
2022/01/19 11:57:08;;;;;;;35.23;16.70;;;;;;;3.76;89.04;101376.38;1686152;83;98668;-71
2022/01/19 11:59:50;;;;;;;32.58;17.02;;;;;;;3.72;88.74;101367.12;1688785;83;26400;-71
2022/01/19 12:02:35;;;;;;;37.85;16.15;;;;;;;3.68;88.61;101366.25;1690062;83;98797;-71
2022/01/19 12:05:11;;;;;;;36.42;16.00;;;;;;;3.69;88.81;101359.17;1692224;83;26581;-72
2022/01/19 12:07:48;;;;;;;30.50;14.33;;;;;;;3.76;88.86;101358.27;1692190;83;98069;-69
2022/01/19 12:10:23;;;;;;;37.28;15.25;;;;;;;3.79;88.71;101330.41;1688296;83;26547;-69
2022/01/19 12:13:57;;;;;;;34.88;17.20;;;;;;;3.80;88.59;101325.55;1688236;83;25934;-69
2022/01/19 12:19:13;;;;;;;36.13;16.30;;;;;;;3.95;88.91;101309.56;1691333;83;25965;-71
2022/01/19 12:21:57;;;;;;;31.97;16.65;;;;;;;4.06;88.83;101297.55;1688389;83;98707;-71
2022/01/19 12:24:44;;;;;;;39.55;16.67;;;;;;;4.12;88.12;101285.58;1690027;83;26339;-72
2022/01/19 12:27:19;;;;;;;36.85;14.80;;;;;;;4.16;88.49;101274.94;1690706;83;98790;-72
2022/01/19 12:30:11;;;;;;;30.00;14.80;;;;;;;4.20;88.54;101266.06;1692664;83;27570;-70
2022/01/19 12:32:42;;;;;;;34.43;16.52;;;;;;;4.28;88.43;101258.05;1687707;83;98728;-72
2022/01/19 12:35:23;;;;;;;36.57;18.80;;;;;;;4.30;88.47;101244.31;1694212;83;26369;-76
2022/01/19 12:37:54;;;;;;;40.80;19.45;;;;;;;4.31;88.46;101235.91;1689109;83;100319;-72
2022/01/19 12:40:40;;;;;;;41.33;19.90;;;;;;;4.34;88.45;101234.11;1693382;83;26152;-72
2022/01/19 12:43:10;;;;;;;43.17;18.32;;;;;;;4.38;88.42;101223.91;1686551;83;27485;-71
2022/01/19 12:45:49;;;;;;;36.17;18.27;;;;;;;4.42;88.16;101216.34;1685463;83;98718;-71
2022/01/19 12:48:39;;;;;;;44.80;20.55;;;;;;;4.46;87.90;101201.27;1687867;83;26456;-71
2022/01/19 12:51:06;;;;;;;32.28;17.15;;;;;;;4.50;88.25;101200.34;1691023;83;98615;-71
2022/01/19 12:53:32;;;;;;;36.05;17.77;;;;;;;4.55;88.34;101197.20;1693718;83;25804;-70
2022/01/19 12:56:03;;;;;;;36.28;17.50;;;;;;;4.59;88.12;101186.98;1691249;83;98941;-71
2022/01/19 12:58:33;;;;;;;;;;;;;;;4.64;88.24;101181.18;1690772;83;25796;-71
2022/01/19 13:01:04;;;;;;;34.73;16.97;;;;;;;4.71;88.29;101178.01;1689247;83;26449;-70
2022/01/19 13:03:33;;;;;;;;;;;;;;;4.74;88.18;101177.98;1692847;83;98801;-71